createdAt,value
2019-04-03T00:00:28.930Z,55.30
2019-04-03T00:01:28.967Z,55.20
2019-04-03T00:02:28.915Z,54.79
2019-04-03T00:03:28.941Z,55.30
2019-04-03T00:04:28.884Z,56.43
2019-04-03T00:05:28.873Z,56.43
2019-04-03T00:06:28.864Z,55.10
2019-04-03T00:07:28.854Z,54.28
2019-04-03T00:08:28.850Z,54.79
2019-04-03T00:09:28.829Z,55.20
2019-04-03T00:10:28.856Z,56.63
2019-04-03T00:11:28.827Z,58.16
2019-04-03T00:12:28.817Z,56.53
2019-04-03T00:13:28.800Z,55.30
2019-04-03T00:14:28.776Z,55.51
2019-04-03T00:15:28.765Z,56.12
2019-04-03T00:16:28.754Z,55.61
2019-04-03T00:17:28.745Z,56.73
2019-04-03T00:18:28.750Z,55.51
2019-04-03T00:19:28.755Z,55.30
2019-04-03T00:20:28.727Z,56.43
2019-04-03T00:21:28.781Z,55.71
2019-04-03T00:22:28.690Z,56.56
2019-04-03T00:23:28.702Z,55.82
2019-04-03T00:24:28.670Z,56.23
2019-04-03T00:25:28.666Z,55.61
2019-04-03T00:26:30.674Z,55.94
2019-04-03T00:27:28.650Z,55.33
2019-04-03T00:28:28.626Z,56.04
2019-04-03T00:29:28.629Z,56.45
2019-04-03T00:30:28.611Z,55.74
2019-04-03T00:31:28.592Z,55.74
2019-04-03T00:32:28.579Z,56.04
2019-04-03T00:33:28.589Z,54.92
2019-04-03T00:34:28.566Z,56.76
2019-04-03T00:35:28.547Z,56.17
2019-04-03T00:36:28.546Z,57.88
2019-04-03T00:37:28.537Z,56.45
2019-04-03T00:38:28.526Z,56.99
2019-04-03T00:39:28.511Z,55.94
2019-04-03T00:40:28.494Z,57.17
2019-04-03T00:41:28.692Z,56.07
2019-04-03T00:42:28.581Z,55.87
2019-04-03T00:43:28.459Z,56.17
2019-04-03T00:44:28.457Z,56.07
2019-04-03T00:45:28.442Z,57.81
2019-04-03T00:46:28.450Z,57.60
2019-04-03T00:47:28.415Z,56.68
2019-04-03T00:48:28.499Z,57.20
2019-04-03T00:49:28.438Z,57.22
2019-04-03T00:50:28.381Z,58.22
2019-04-03T00:51:28.414Z,57.91
2019-04-03T00:52:28.360Z,57.09
2019-04-03T00:53:28.378Z,56.99
2019-04-03T00:54:30.679Z,56.68
2019-04-03T00:55:28.330Z,56.79
2019-04-03T00:56:28.321Z,56.48
2019-04-03T00:57:28.305Z,57.09
2019-04-03T00:58:28.304Z,56.81
2019-04-03T00:59:28.290Z,57.09
2019-04-03T01:00:28.282Z,57.02
2019-04-03T01:01:28.269Z,57.32
2019-04-03T01:02:28.613Z,58.14
2019-04-03T01:03:28.715Z,58.25
2019-04-03T01:04:28.997Z,57.32
2019-04-03T01:05:28.951Z,57.32
2019-04-03T01:06:28.950Z,58.37
2019-04-03T01:07:29.251Z,57.25
2019-04-03T01:08:29.337Z,58.34
2019-04-03T01:09:29.773Z,57.93
2019-04-03T01:10:29.806Z,58.37
2019-04-03T01:11:28.872Z,58.17
2019-04-03T01:12:30.539Z,58.27
2019-04-03T01:13:28.133Z,58.37
2019-04-03T01:14:28.155Z,58.68
2019-04-03T01:15:28.211Z,57.76
2019-04-03T01:16:28.105Z,58.98
2019-04-03T01:17:28.092Z,58.89
2019-04-03T01:18:28.084Z,58.27
2019-04-03T01:19:28.095Z,58.07
2019-04-03T01:20:28.064Z,58.17
2019-04-03T01:21:28.052Z,58.09
2019-04-03T01:22:28.204Z,57.15
2019-04-03T01:23:28.021Z,58.58
2019-04-03T01:24:28.025Z,59.53
2019-04-03T01:25:28.008Z,58.91
2019-04-03T01:26:27.989Z,58.70
2019-04-03T01:27:27.981Z,58.91
2019-04-03T01:28:27.968Z,58.91
2019-04-03T01:29:27.964Z,58.61
2019-04-03T01:30:27.948Z,58.73
2019-04-03T01:31:27.937Z,59.25
2019-04-03T01:32:28.025Z,59.04
2019-04-03T01:33:27.911Z,58.84
2019-04-03T01:34:27.956Z,59.25
2019-04-03T01:35:27.897Z,59.27
2019-04-03T01:36:28.075Z,59.25
2019-04-03T01:37:27.874Z,59.25
2019-04-03T01:38:27.862Z,59.99
2019-04-03T01:39:27.931Z,59.17
2019-04-03T01:40:27.835Z,60.60
2019-04-03T01:41:28.062Z,60.60
2019-04-03T01:42:27.810Z,59.48
2019-04-03T01:43:27.801Z,60.71
2019-04-03T01:44:27.824Z,60.91
2019-04-03T01:45:27.778Z,60.60
2019-04-03T01:46:28.134Z,60.71
2019-04-03T01:47:28.183Z,60.60
2019-04-03T01:48:28.480Z,60.50
2019-04-03T01:49:28.390Z,60.91
2019-04-03T01:50:42.573Z,60.50
2019-04-03T01:51:29.731Z,61.11
2019-04-03T01:52:27.703Z,60.84
2019-04-03T01:53:27.702Z,61.25
2019-04-03T01:54:27.707Z,60.53
2019-04-03T01:55:27.669Z,60.84
2019-04-03T01:56:27.660Z,61.04
2019-04-03T01:57:27.650Z,61.55
2019-04-03T01:58:27.647Z,61.76
2019-04-03T01:59:27.639Z,62.07
2019-04-03T02:00:27.610Z,62.19
2019-04-03T02:01:27.606Z,62.17
2019-04-03T02:02:27.616Z,61.79
2019-04-03T02:03:27.578Z,62.30
2019-04-03T02:04:27.589Z,62.30
2019-04-03T02:05:27.562Z,62.30
2019-04-03T02:06:27.543Z,62.40
2019-04-03T02:07:27.573Z,62.61
2019-04-03T02:08:27.550Z,62.51
2019-04-03T02:09:27.573Z,64.14
2019-04-03T02:10:27.713Z,62.10
2019-04-03T02:11:27.532Z,62.61
2019-04-03T02:12:27.476Z,63.43
2019-04-03T02:13:27.474Z,62.19
2019-04-03T02:14:27.497Z,63.22
2019-04-03T02:15:27.445Z,62.71
2019-04-03T02:16:27.432Z,63.43
2019-04-03T02:17:27.420Z,63.22
2019-04-03T02:18:27.411Z,63.84
2019-04-03T02:19:27.404Z,62.54
2019-04-03T02:20:27.588Z,62.95
2019-04-03T02:21:28.307Z,62.63
2019-04-03T02:22:28.969Z,64.59
2019-04-03T02:23:27.370Z,64.17
2019-04-03T02:24:27.359Z,65.10
2019-04-03T02:25:27.398Z,65.71
2019-04-03T02:26:27.515Z,64.38
2019-04-03T02:27:27.310Z,64.89
2019-04-03T02:28:27.303Z,65.20
2019-04-03T02:29:27.295Z,64.17
2019-04-03T02:30:27.285Z,64.17
2019-04-03T02:31:27.364Z,65.10
2019-04-03T02:32:27.265Z,64.79
2019-04-03T02:33:28.940Z,64.79
2019-04-03T02:34:27.238Z,65.00
2019-04-03T02:35:27.232Z,65.51
2019-04-03T02:36:27.207Z,64.89
2019-04-03T02:37:27.509Z,64.72
2019-04-03T02:38:27.204Z,64.00
2019-04-03T02:39:27.731Z,65.30
2019-04-03T02:40:31.422Z,65.84
2019-04-03T02:41:28.161Z,64.61
2019-04-03T02:42:27.146Z,65.74
2019-04-03T02:43:27.143Z,65.44
2019-04-03T02:44:27.125Z,65.61
2019-04-03T02:45:27.130Z,66.05
2019-04-03T02:46:28.608Z,65.64
2019-04-03T02:47:27.334Z,65.33
2019-04-03T02:48:27.199Z,66.25
2019-04-03T02:49:27.068Z,66.16
2019-04-03T02:50:27.066Z,66.36
2019-04-03T02:51:27.049Z,66.56
2019-04-03T02:52:27.483Z,66.67
2019-04-03T02:53:27.510Z,66.97
2019-04-03T02:54:27.016Z,66.77
2019-04-03T02:55:27.012Z,66.56
2019-04-03T02:56:27.019Z,66.05
2019-04-03T02:57:26.977Z,65.47
2019-04-03T02:58:26.967Z,66.05
2019-04-03T02:59:27.010Z,67.28
2019-04-03T03:00:27.109Z,67.79
2019-04-03T03:01:26.930Z,67.00
2019-04-03T03:02:26.933Z,67.08
2019-04-03T03:03:26.930Z,68.03
2019-04-03T03:04:26.915Z,67.32
2019-04-03T03:05:28.422Z,67.52
2019-04-03T03:06:26.879Z,68.54
2019-04-03T03:07:26.864Z,68.65
2019-04-03T03:08:26.852Z,67.32
2019-04-03T03:09:26.865Z,67.21
2019-04-03T03:10:30.621Z,68.03
2019-04-03T03:11:26.845Z,67.41
2019-04-03T03:12:27.784Z,67.41
2019-04-03T03:13:26.926Z,67.00
2019-04-03T03:14:26.792Z,68.13
2019-04-03T03:15:26.781Z,68.54
2019-04-03T03:16:26.941Z,67.72
2019-04-03T03:17:26.822Z,68.78
2019-04-03T03:18:28.040Z,68.78
2019-04-03T03:19:26.736Z,68.16
2019-04-03T03:20:26.756Z,67.86
2019-04-03T03:21:26.740Z,67.93
2019-04-03T03:22:26.698Z,67.52
2019-04-03T03:23:26.940Z,68.16
2019-04-03T03:24:29.358Z,68.68
2019-04-03T03:25:26.701Z,68.68
2019-04-03T03:26:26.672Z,68.48
2019-04-03T03:27:26.715Z,68.68
2019-04-03T03:28:26.636Z,68.37
2019-04-03T03:29:27.524Z,68.48
2019-04-03T03:30:38.906Z,68.78
2019-04-03T03:31:57.420Z,68.68
2019-04-03T03:32:32.778Z,68.57
2019-04-03T03:33:35.676Z,68.78
2019-04-03T03:34:47.416Z,69.19
2019-04-03T03:35:31.420Z,68.68
2019-04-03T03:36:27.729Z,69.70
2019-04-03T03:37:26.668Z,70.42
2019-04-03T03:38:27.792Z,69.09
2019-04-03T03:39:26.514Z,69.19
2019-04-03T03:40:26.525Z,69.09
2019-04-03T03:41:26.507Z,69.19
2019-04-03T03:42:30.114Z,69.81
2019-04-03T03:43:26.683Z,68.88
2019-04-03T03:44:26.488Z,68.68
2019-04-03T03:45:26.447Z,68.57
2019-04-03T03:46:27.825Z,69.09
2019-04-03T03:47:26.429Z,68.68
2019-04-03T03:48:26.488Z,69.06
2019-04-03T03:49:26.785Z,69.60
2019-04-03T03:50:26.708Z,68.68
2019-04-03T03:51:30.166Z,70.32
2019-04-03T03:52:26.474Z,69.70
2019-04-03T03:53:26.605Z,70.32
2019-04-03T03:54:26.408Z,70.50
2019-04-03T03:55:26.404Z,70.53
2019-04-03T03:56:26.337Z,70.18
2019-04-03T03:57:26.595Z,68.68
2019-04-03T03:58:26.502Z,69.26
2019-04-03T03:59:26.339Z,71.14
2019-04-03T04:00:26.420Z,71.14
2019-04-03T04:01:28.311Z,70.42
2019-04-03T04:02:26.337Z,70.50
2019-04-03T04:03:26.249Z,70.63
2019-04-03T04:04:26.355Z,70.63
2019-04-03T04:05:26.231Z,70.12
2019-04-03T04:06:29.076Z,70.63
2019-04-03T04:07:26.222Z,70.22
2019-04-03T04:08:26.366Z,70.18
2019-04-03T04:09:26.185Z,70.22
2019-04-03T04:10:26.609Z,70.70
2019-04-03T04:11:26.214Z,71.11
2019-04-03T04:12:26.438Z,71.25
2019-04-03T04:13:26.137Z,71.11
2019-04-03T04:14:26.177Z,71.72
2019-04-03T04:15:28.863Z,71.21
2019-04-03T04:16:26.181Z,71.25
2019-04-03T04:17:26.089Z,70.60
2019-04-03T04:18:26.086Z,68.68
2019-04-03T04:19:28.533Z,69.16
2019-04-03T04:20:26.060Z,70.53
2019-04-03T04:21:26.046Z,71.83
2019-04-03T04:22:27.358Z,71.42
2019-04-03T04:23:26.025Z,70.53
2019-04-03T04:24:27.611Z,70.63
2019-04-03T04:25:26.011Z,70.53
2019-04-03T04:26:26.098Z,72.03
2019-04-03T04:27:25.982Z,72.03
2019-04-03T04:28:26.290Z,72.75
2019-04-03T04:29:26.184Z,72.96
2019-04-03T04:30:25.950Z,72.65
2019-04-03T04:31:25.935Z,72.85
2019-04-03T04:32:25.924Z,72.44
2019-04-03T04:33:25.914Z,72.85
2019-04-03T04:34:25.901Z,72.44
2019-04-03T04:35:25.891Z,72.96
2019-04-03T04:36:25.897Z,72.34
2019-04-03T04:37:26.407Z,72.24
2019-04-03T04:38:26.824Z,71.42
2019-04-03T04:39:26.603Z,70.87
2019-04-03T04:40:25.834Z,71.11
2019-04-03T04:41:25.830Z,70.50
2019-04-03T04:42:25.814Z,70.70
2019-04-03T04:43:25.811Z,72.44
2019-04-03T04:44:25.944Z,71.72
2019-04-03T04:45:25.776Z,71.52
2019-04-03T04:46:25.770Z,70.90
2019-04-03T04:47:25.755Z,71.31
2019-04-03T04:48:25.785Z,70.70
2019-04-03T04:49:25.734Z,71.21
2019-04-03T04:50:25.825Z,70.80
2019-04-03T04:51:26.399Z,70.39
2019-04-03T04:52:27.510Z,70.08
2019-04-03T04:53:25.716Z,70.39
2019-04-03T04:54:25.680Z,71.11
2019-04-03T04:55:25.932Z,71.83
2019-04-03T04:56:25.661Z,72.96
2019-04-03T04:57:25.647Z,72.00
2019-04-03T04:58:25.968Z,71.80
2019-04-03T04:59:25.892Z,72.00
2019-04-03T05:00:25.614Z,71.90
2019-04-03T05:01:25.600Z,70.77
2019-04-03T05:02:25.711Z,71.01
2019-04-03T05:03:25.587Z,71.48
2019-04-03T05:04:25.710Z,72.44
2019-04-03T05:05:27.225Z,73.13
2019-04-03T05:06:27.002Z,72.55
2019-04-03T05:07:25.536Z,73.23
2019-04-03T05:08:25.533Z,71.90
2019-04-03T05:09:25.530Z,71.69
2019-04-03T05:10:25.502Z,71.18
2019-04-03T05:11:25.503Z,70.56
2019-04-03T05:12:25.478Z,70.15
2019-04-03T05:13:25.696Z,70.05
2019-04-03T05:14:25.463Z,69.84
2019-04-03T05:15:25.446Z,71.48
2019-04-03T05:16:25.709Z,71.18
2019-04-03T05:17:27.232Z,71.80
2019-04-03T05:18:25.622Z,71.90
2019-04-03T05:19:25.415Z,71.18
2019-04-03T05:20:25.527Z,70.15
2019-04-03T05:21:25.405Z,70.56
2019-04-03T05:22:25.370Z,70.67
2019-04-03T05:23:26.109Z,70.64
2019-04-03T05:24:25.356Z,71.76
2019-04-03T05:25:25.332Z,72.07
2019-04-03T05:26:25.336Z,70.94
2019-04-03T05:27:25.363Z,70.64
2019-04-03T05:28:25.313Z,71.35
2019-04-03T05:29:25.291Z,71.25
2019-04-03T05:30:25.279Z,72.68
2019-04-03T05:31:25.366Z,73.19
2019-04-03T05:32:25.267Z,71.86
2019-04-03T05:33:25.251Z,72.38
2019-04-03T05:34:25.278Z,70.73
2019-04-03T05:35:25.229Z,71.97
2019-04-03T05:36:25.241Z,70.84
2019-04-03T05:37:25.224Z,71.15
2019-04-03T05:38:25.491Z,71.04
2019-04-03T05:39:25.721Z,71.08
2019-04-03T05:40:26.212Z,70.56
2019-04-03T05:41:27.440Z,71.08
2019-04-03T05:42:25.151Z,70.87
2019-04-03T05:43:25.196Z,70.56
2019-04-03T05:44:25.286Z,71.08
2019-04-03T05:45:25.125Z,71.48
2019-04-03T05:46:25.109Z,72.82
2019-04-03T05:47:25.168Z,73.13
2019-04-03T05:48:25.150Z,72.82
2019-04-03T05:49:25.077Z,71.59
2019-04-03T05:50:26.450Z,72.41
2019-04-03T05:51:25.065Z,72.41
2019-04-03T05:52:25.052Z,72.00
2019-04-03T05:53:25.043Z,71.59
2019-04-03T05:54:25.015Z,72.41
2019-04-03T05:55:25.009Z,71.93
2019-04-03T05:56:25.004Z,71.90
2019-04-03T05:57:25.176Z,72.20
2019-04-03T05:58:25.281Z,71.80
2019-04-03T05:59:24.983Z,72.20
2019-04-03T06:00:24.954Z,71.69
2019-04-03T06:01:24.943Z,72.61
2019-04-03T06:02:25.105Z,71.90
2019-04-03T06:03:38.795Z,71.90
2019-04-03T06:04:25.914Z,72.38
2019-04-03T06:05:24.906Z,71.56
2019-04-03T06:06:25.095Z,71.04
2019-04-03T06:07:24.865Z,70.53
2019-04-03T06:08:24.884Z,70.43
2019-04-03T06:09:24.854Z,69.71
2019-04-03T06:10:27.292Z,69.40
2019-04-03T06:11:24.823Z,69.30
2019-04-03T06:12:24.829Z,68.99
2019-04-03T06:13:24.807Z,69.81
2019-04-03T06:14:24.816Z,69.40
2019-04-03T06:15:25.024Z,69.54
2019-04-03T06:16:25.026Z,70.02
2019-04-03T06:17:24.762Z,70.02
2019-04-03T06:18:26.535Z,69.43
2019-04-03T06:19:24.762Z,70.56
2019-04-03T06:20:24.723Z,70.77
2019-04-03T06:21:24.710Z,70.32
2019-04-03T06:22:24.811Z,69.71
2019-04-03T06:23:24.686Z,69.92
2019-04-03T06:24:25.024Z,69.74
2019-04-03T06:25:28.972Z,69.43
2019-04-03T06:26:25.657Z,69.33
2019-04-03T06:27:27.428Z,68.68
2019-04-03T06:28:24.654Z,70.02
2019-04-03T06:29:24.631Z,68.79
2019-04-03T06:30:25.766Z,69.71
2019-04-03T06:31:26.485Z,69.40
2019-04-03T06:32:25.093Z,69.81
2019-04-03T06:33:24.574Z,70.22
2019-04-03T06:34:24.719Z,68.68
2019-04-03T06:35:24.557Z,68.68
2019-04-03T06:36:24.541Z,70.32
2019-04-03T06:37:24.554Z,69.89
2019-04-03T06:38:25.181Z,68.68
2019-04-03T06:39:27.445Z,68.55
2019-04-03T06:40:25.561Z,68.76
2019-04-03T06:41:24.725Z,68.65
2019-04-03T06:42:24.520Z,68.45
2019-04-03T06:43:24.467Z,68.35
2019-04-03T06:44:24.469Z,68.55
2019-04-03T06:45:26.100Z,68.04
2019-04-03T06:46:24.505Z,68.35
2019-04-03T06:47:24.420Z,68.35
2019-04-03T06:48:24.411Z,68.45
2019-04-03T06:49:24.544Z,68.96
2019-04-03T06:50:24.389Z,68.86
2019-04-03T06:51:24.661Z,68.65
2019-04-03T06:52:24.370Z,68.52
2019-04-03T06:53:27.733Z,68.21
2019-04-03T06:54:24.512Z,67.80
2019-04-03T06:55:25.368Z,67.80
2019-04-03T06:56:24.318Z,68.01
2019-04-03T06:57:24.309Z,67.19
2019-04-03T06:58:31.681Z,66.98
2019-04-03T06:59:25.283Z,66.98
2019-04-03T07:00:24.562Z,67.19
2019-04-03T07:01:24.281Z,67.80
2019-04-03T07:02:27.084Z,67.80
2019-04-03T07:03:24.242Z,67.90
2019-04-03T07:04:24.230Z,68.01
2019-04-03T07:05:27.244Z,67.80
2019-04-03T07:06:24.280Z,67.80
2019-04-03T07:07:33.298Z,67.90
2019-04-03T07:08:32.140Z,67.29
2019-04-03T07:09:34.120Z,67.29
2019-04-03T07:10:26.118Z,66.78
2019-04-03T07:11:24.255Z,66.47
2019-04-03T07:12:24.195Z,67.60
2019-04-03T07:13:24.139Z,67.05
2019-04-03T07:14:26.165Z,67.16
2019-04-03T07:15:25.190Z,66.34
2019-04-03T07:16:24.113Z,67.16
2019-04-03T07:17:24.092Z,66.85
2019-04-03T07:18:24.198Z,66.44
2019-04-03T07:19:24.175Z,66.64
2019-04-03T07:20:24.059Z,66.34
2019-04-03T07:21:27.096Z,67.46
2019-04-03T07:22:24.113Z,67.46
2019-04-03T07:23:24.050Z,67.16
2019-04-03T07:24:24.274Z,67.16
2019-04-03T07:25:24.001Z,67.84
2019-04-03T07:26:24.155Z,67.26
2019-04-03T07:27:23.991Z,66.92
2019-04-03T07:28:24.164Z,66.92
2019-04-03T07:29:25.532Z,66.41
2019-04-03T07:30:23.956Z,65.69
2019-04-03T07:31:24.511Z,66.31
2019-04-03T07:32:25.834Z,67.02
2019-04-03T07:33:24.106Z,66.78
2019-04-03T07:34:24.175Z,65.97
2019-04-03T07:35:23.958Z,65.15
2019-04-03T07:36:23.881Z,65.77
2019-04-03T07:37:23.869Z,66.45
2019-04-03T07:38:23.858Z,65.33
2019-04-03T07:39:23.863Z,64.51
2019-04-03T07:40:23.861Z,64.20
2019-04-03T07:41:23.828Z,63.48
2019-04-03T07:42:24.559Z,63.45
2019-04-03T07:43:26.132Z,63.56
2019-04-03T07:44:23.810Z,64.17
2019-04-03T07:45:23.783Z,63.76
2019-04-03T07:46:23.774Z,62.74
2019-04-03T07:47:23.762Z,62.61
2019-04-03T07:48:23.963Z,62.10
2019-04-03T07:49:23.749Z,62.71
2019-04-03T07:50:23.753Z,62.20
2019-04-03T07:51:23.834Z,63.63
2019-04-03T07:52:23.758Z,62.58
2019-04-03T07:53:23.695Z,63.60
2019-04-03T07:54:26.153Z,64.11
2019-04-03T07:55:24.518Z,63.19
2019-04-03T07:56:25.619Z,62.68
2019-04-03T07:57:23.925Z,62.85
2019-04-03T07:58:25.659Z,62.85
2019-04-03T07:59:23.655Z,61.43
2019-04-03T08:00:23.907Z,61.53
2019-04-03T08:01:23.623Z,61.94
2019-04-03T08:02:23.645Z,61.02
2019-04-03T08:03:23.592Z,61.02
2019-04-03T08:04:25.248Z,61.73
2019-04-03T08:05:23.572Z,61.12
2019-04-03T08:06:23.690Z,60.41
2019-04-03T08:07:23.590Z,60.99
2019-04-03T08:08:23.535Z,60.89
2019-04-03T08:09:23.590Z,59.36
2019-04-03T08:10:23.513Z,59.84
2019-04-03T08:11:23.509Z,60.66
2019-04-03T08:12:23.492Z,60.86
2019-04-03T08:13:23.482Z,59.74
2019-04-03T08:14:23.487Z,58.41
2019-04-03T08:15:23.730Z,58.82
2019-04-03T08:16:23.445Z,59.64
2019-04-03T08:17:23.497Z,58.72
2019-04-03T08:18:23.425Z,58.31
2019-04-03T08:19:23.612Z,59.00
2019-04-03T08:20:23.769Z,58.69
2019-04-03T08:21:23.394Z,58.36
2019-04-03T08:22:23.551Z,58.26
2019-04-03T08:23:23.386Z,58.76
2019-04-03T08:24:23.589Z,56.70
2019-04-03T08:25:23.350Z,56.81
2019-04-03T08:26:26.208Z,57.62
2019-04-03T08:27:24.352Z,57.90
2019-04-03T08:28:25.548Z,57.59
2019-04-03T08:29:23.311Z,56.68
2019-04-03T08:30:23.383Z,57.29
2019-04-03T08:31:23.470Z,56.75
2019-04-03T08:32:23.498Z,56.45
2019-04-03T08:33:26.617Z,56.55
2019-04-03T08:34:23.312Z,54.92
2019-04-03T08:35:24.230Z,56.52
2019-04-03T08:36:26.090Z,55.30
2019-04-03T08:37:30.557Z,55.00
2019-04-03T08:38:24.245Z,55.91
2019-04-03T08:39:23.206Z,55.20
2019-04-03T08:40:23.196Z,55.81
2019-04-03T08:41:24.282Z,56.42
2019-04-03T08:42:23.183Z,56.21
2019-04-03T08:43:23.272Z,55.10
2019-04-03T08:44:23.139Z,54.90
2019-04-03T08:45:23.140Z,55.58
2019-04-03T08:46:23.119Z,55.20
2019-04-03T08:47:23.174Z,54.77
2019-04-03T08:48:23.096Z,53.34
2019-04-03T08:49:25.786Z,54.77
2019-04-03T08:50:23.115Z,53.55
2019-04-03T08:51:23.073Z,53.32
2019-04-03T08:52:23.215Z,53.42
2019-04-03T08:53:23.038Z,51.90
2019-04-03T08:54:23.030Z,51.90
2019-04-03T08:55:23.034Z,52.99
2019-04-03T08:56:23.005Z,53.30
2019-04-03T08:57:22.994Z,51.46
2019-04-03T08:58:25.416Z,53.19
2019-04-03T08:59:22.971Z,52.05
2019-04-03T09:00:22.995Z,51.65
2019-04-03T09:01:23.281Z,52.86
2019-04-03T09:02:22.984Z,52.23
2019-04-03T09:03:22.941Z,50.31
2019-04-03T09:04:23.200Z,48.86
2019-04-03T09:05:22.922Z,48.35
2019-04-03T09:06:23.451Z,50.28
2019-04-03T09:07:24.642Z,49.06
2019-04-03T09:08:23.023Z,48.83
2019-04-03T09:09:22.958Z,49.34
2019-04-03T09:10:23.573Z,50.94
2019-04-03T09:11:22.912Z,49.93
2019-04-03T09:12:22.840Z,50.21
2019-04-03T09:13:24.117Z,49.07
2019-04-03T09:14:24.989Z,48.77
2019-04-03T09:15:22.876Z,47.53
2019-04-03T09:16:22.822Z,48.74
2019-04-03T09:17:23.599Z,48.14
2019-04-03T09:18:22.771Z,48.44
2019-04-03T09:19:22.763Z,50.87
2019-04-03T09:20:22.857Z,48.93
2019-04-03T09:21:23.285Z,48.42
2019-04-03T09:22:22.980Z,47.89
2019-04-03T09:23:24.615Z,47.61
2019-04-03T09:24:22.790Z,49.10
2019-04-03T09:25:22.707Z,45.77
2019-04-03T09:26:22.704Z,45.16
2019-04-03T09:27:23.026Z,46.15
2019-04-03T09:28:22.875Z,45.65
2019-04-03T09:29:22.944Z,46.66
2019-04-03T09:30:22.825Z,45.75
2019-04-03T09:31:22.891Z,45.14
2019-04-03T09:32:23.481Z,44.71
2019-04-03T09:33:24.964Z,44.82
2019-04-03T09:34:22.863Z,45.32
2019-04-03T09:35:22.581Z,45.00
2019-04-03T09:36:22.599Z,45.61
2019-04-03T09:37:22.563Z,43.99
2019-04-03T09:38:23.156Z,43.69
2019-04-03T09:39:22.559Z,43.59
2019-04-03T09:40:22.556Z,43.99
2019-04-03T09:41:22.615Z,43.87
2019-04-03T09:42:22.507Z,44.57
2019-04-03T09:43:23.144Z,42.96
2019-04-03T09:44:24.529Z,43.87
2019-04-03T09:45:22.818Z,43.24
2019-04-03T09:46:22.517Z,42.44
2019-04-03T09:47:22.460Z,43.34
2019-04-03T09:48:22.461Z,43.62
2019-04-03T09:49:22.699Z,42.61
2019-04-03T09:50:23.023Z,42.52
2019-04-03T09:51:23.021Z,44.23
2019-04-03T09:52:23.562Z,43.32
2019-04-03T09:53:25.520Z,43.00
2019-04-03T09:54:22.383Z,43.60
2019-04-03T09:55:22.368Z,42.19
2019-04-03T09:56:22.481Z,42.90
2019-04-03T09:57:22.346Z,42.60
2019-04-03T09:58:22.341Z,43.60
2019-04-03T09:59:22.325Z,42.90
2019-04-03T10:00:22.315Z,42.18
2019-04-03T10:01:22.313Z,43.59
2019-04-03T10:02:22.321Z,43.87
2019-04-03T10:03:23.457Z,39.64
2019-04-03T10:04:22.390Z,40.33
2019-04-03T10:05:22.324Z,41.23
2019-04-03T10:06:22.265Z,40.92
2019-04-03T10:07:22.263Z,39.80
2019-04-03T10:08:22.238Z,39.90
2019-04-03T10:09:22.255Z,39.58
2019-04-03T10:10:25.155Z,39.48
2019-04-03T10:11:22.243Z,39.70
2019-04-03T10:12:22.720Z,38.88
2019-04-03T10:13:24.836Z,39.48
2019-04-03T10:14:22.193Z,39.38
2019-04-03T10:15:22.165Z,39.58
2019-04-03T10:16:22.232Z,38.78
2019-04-03T10:17:22.139Z,40.19
2019-04-03T10:18:22.572Z,38.98
2019-04-03T10:19:22.418Z,38.18
2019-04-03T10:20:22.751Z,40.81
2019-04-03T10:21:23.517Z,38.20
2019-04-03T10:22:24.143Z,39.90
2019-04-03T10:23:22.265Z,38.40
2019-04-03T10:24:22.697Z,38.71
2019-04-03T10:25:22.063Z,38.42
2019-04-03T10:26:22.054Z,38.51
2019-04-03T10:27:22.591Z,41.53
2019-04-03T10:28:22.024Z,41.33
2019-04-03T10:29:22.064Z,38.71
2019-04-03T10:30:22.486Z,40.33
2019-04-03T10:31:24.263Z,40.91
2019-04-03T10:32:22.002Z,39.70
2019-04-03T10:33:22.198Z,39.40
2019-04-03T10:34:21.964Z,38.58
2019-04-03T10:35:21.989Z,39.69
2019-04-03T10:36:22.064Z,38.18
2019-04-03T10:37:22.233Z,39.69
2019-04-03T10:38:21.990Z,39.28
2019-04-03T10:39:22.230Z,38.48
2019-04-03T10:40:24.104Z,38.56
2019-04-03T10:41:21.899Z,39.47
2019-04-03T10:42:22.590Z,40.26
2019-04-03T10:43:22.235Z,39.56
2019-04-03T10:44:21.887Z,39.66
2019-04-03T10:45:22.856Z,39.47
2019-04-03T10:46:21.831Z,39.48
2019-04-03T10:47:26.566Z,38.58
2019-04-03T10:48:23.634Z,39.78
2019-04-03T10:49:22.088Z,38.88
2019-04-03T10:50:21.795Z,39.38
2019-04-03T10:51:21.963Z,39.78
2019-04-03T10:52:22.019Z,40.37
2019-04-03T10:53:21.903Z,40.26
2019-04-03T10:54:24.400Z,40.67
2019-04-03T10:55:21.732Z,39.36
2019-04-03T10:56:21.726Z,39.36
2019-04-03T10:57:21.809Z,39.36
2019-04-03T10:58:21.709Z,39.64
2019-04-03T10:59:21.747Z,38.24
2019-04-03T11:00:22.094Z,40.63
2019-04-03T11:01:21.727Z,38.54
2019-04-03T11:02:21.688Z,36.23
2019-04-03T11:03:21.755Z,36.93
2019-04-03T11:04:21.798Z,36.73
2019-04-03T11:05:21.629Z,37.44
2019-04-03T11:06:21.620Z,37.63
2019-04-03T11:07:21.632Z,37.82
2019-04-03T11:08:21.602Z,37.62
2019-04-03T11:09:21.590Z,38.72
2019-04-03T11:10:23.368Z,36.92
2019-04-03T11:11:21.563Z,36.61
2019-04-03T11:12:21.554Z,37.02
2019-04-03T11:13:22.453Z,36.70
2019-04-03T11:14:22.027Z,36.60
2019-04-03T11:15:21.530Z,37.22
2019-04-03T11:16:21.984Z,37.54
2019-04-03T11:17:23.771Z,37.54
2019-04-03T11:18:21.885Z,36.63
2019-04-03T11:19:21.486Z,39.25
2019-04-03T11:20:21.778Z,38.24
2019-04-03T11:21:22.146Z,39.23
2019-04-03T11:22:21.704Z,36.83
2019-04-03T11:23:36.065Z,38.24
2019-04-03T11:24:22.441Z,40.65
2019-04-03T11:25:21.662Z,38.74
2019-04-03T11:26:24.315Z,36.93
2019-04-03T11:27:25.100Z,36.73
2019-04-03T11:28:22.679Z,37.62
2019-04-03T11:29:21.534Z,37.62
2019-04-03T11:30:24.194Z,38.53
2019-04-03T11:31:27.445Z,38.42
2019-04-03T11:32:23.193Z,37.12
2019-04-03T11:33:21.377Z,35.41
2019-04-03T11:34:21.691Z,37.12
2019-04-03T11:35:22.408Z,36.11
2019-04-03T11:36:23.298Z,35.31
2019-04-03T11:37:21.316Z,36.61
2019-04-03T11:38:27.155Z,35.82
2019-04-03T11:39:23.127Z,37.40
2019-04-03T11:40:24.234Z,35.80
2019-04-03T11:41:22.955Z,36.40
2019-04-03T11:42:24.492Z,33.49
2019-04-03T11:43:23.034Z,33.19
2019-04-03T11:44:21.216Z,33.19
2019-04-03T11:45:21.403Z,34.09
2019-04-03T11:46:21.193Z,34.99
2019-04-03T11:47:22.423Z,33.89
2019-04-03T11:48:21.270Z,32.77
2019-04-03T11:49:21.407Z,35.08
2019-04-03T11:50:23.464Z,34.08
2019-04-03T11:51:21.159Z,33.87
2019-04-03T11:52:21.129Z,33.96
2019-04-03T11:53:21.137Z,34.56
2019-04-03T11:54:21.722Z,34.46
2019-04-03T11:55:21.141Z,34.16
2019-04-03T11:56:21.764Z,37.07
2019-04-03T11:57:21.076Z,34.76
2019-04-03T11:58:22.102Z,35.86
2019-04-03T11:59:22.773Z,34.96
2019-04-03T12:00:21.233Z,35.16
2019-04-03T12:01:21.090Z,34.24
2019-04-03T12:02:21.034Z,34.64
2019-04-03T12:03:21.402Z,34.24
2019-04-03T12:04:21.276Z,33.34
2019-04-03T12:05:21.584Z,33.54
2019-04-03T12:06:21.228Z,33.44
2019-04-03T12:07:20.969Z,34.64
2019-04-03T12:08:20.964Z,36.63
2019-04-03T12:09:21.178Z,35.14
2019-04-03T12:10:20.932Z,34.05
2019-04-03T12:11:21.635Z,34.34
2019-04-03T12:12:20.916Z,33.74
2019-04-03T12:13:21.964Z,35.35
2019-04-03T12:14:20.911Z,33.94
2019-04-03T12:15:21.949Z,36.55
2019-04-03T12:16:23.892Z,34.84
2019-04-03T12:17:21.190Z,33.24
2019-04-03T12:18:20.855Z,34.24
2019-04-03T12:19:20.838Z,34.34
2019-04-03T12:20:20.826Z,35.05
2019-04-03T12:21:21.258Z,33.83
2019-04-03T12:22:21.977Z,32.32
2019-04-03T12:23:20.806Z,31.62
2019-04-03T12:24:20.785Z,33.33
2019-04-03T12:25:20.777Z,32.93
2019-04-03T12:26:21.316Z,32.51
2019-04-03T12:27:20.891Z,35.33
2019-04-03T12:28:20.798Z,33.33
2019-04-03T12:29:21.923Z,33.71
2019-04-03T12:30:20.717Z,33.11
2019-04-03T12:31:20.800Z,34.91
2019-04-03T12:32:21.607Z,33.11
2019-04-03T12:33:21.692Z,32.73
2019-04-03T12:34:22.986Z,33.33
2019-04-03T12:35:20.700Z,33.71
2019-04-03T12:36:21.408Z,33.12
2019-04-03T12:37:20.923Z,33.33
2019-04-03T12:38:22.454Z,34.93
2019-04-03T12:39:20.906Z,33.81
2019-04-03T12:40:20.620Z,32.01
2019-04-03T12:41:21.147Z,31.20
2019-04-03T12:42:20.965Z,30.40
2019-04-03T12:43:21.850Z,31.20
2019-04-03T12:44:21.945Z,29.69
2019-04-03T12:45:20.879Z,31.20
2019-04-03T12:46:20.655Z,30.88
2019-04-03T12:47:20.535Z,31.40
2019-04-03T12:48:20.531Z,30.18
2019-04-03T12:49:22.857Z,30.78
2019-04-03T12:50:21.067Z,30.08
2019-04-03T12:51:20.942Z,29.08
2019-04-03T12:52:20.483Z,28.57